»·PEaware :: N2494V KMRY-KSAC

N2494V :: KMRY-KSAC

FLIGHT INFORMATION

Flight Status: Arrived
Operator: Privately registered:
United States
More flights under this callsign
Pilot: Sally S. (18014)
Aircraft: Unknown
(DA62)
More flights by this aircraft type
Origin: KMRY Monterey Peninsula
United States
Destination: KSAC Sacramento Executive
United States
More flights between these airports :: More routes between these airports
Route: +MRY4 SNS V111 MOD SAC
File this flight plan on PilotEdge
Remarks:
Altitude:
(Current/Filed)
11,000ft
Speed:
(Current/Filed)
163kts
Departed: 16-Apr-18 11:10 AM
Arrived: 16-Apr-18 12:05 PM
Distance/Time
Traveled:
117nm/0:55
Distance/Time
To Go:
Arrived

Flight Plot

Page will automatically refresh every two minutes.

Flight plan parsing failed; only flown route is shown


Map Options




Map Legend


Flown Route
Filed Route
Departure Airport
Arrival Airport
Navaid (VOR, NDB)
Fix

Horizontal Profiles

Position Reports

Time Latitude Longitude Heading Altitude Ground
Speed
16-Apr-18 10:45 36.588232 -121.851834 15 259ft 0kts
16-Apr-18 10:46 36.588232 -121.851834 15 259ft 0kts
16-Apr-18 10:47 36.588232 -121.851834 15 259ft 0kts
16-Apr-18 10:48 36.588232 -121.851834 15 259ft 0kts
16-Apr-18 10:49 36.588232 -121.851834 15 259ft 0kts
16-Apr-18 10:50 36.588232 -121.851834 15 259ft 0kts
16-Apr-18 10:51 36.588232 -121.851834 15 259ft 0kts
16-Apr-18 10:52 36.588232 -121.851834 15 259ft 0kts
16-Apr-18 10:53 36.588232 -121.851834 15 259ft 0kts
16-Apr-18 10:54 36.588232 -121.851834 15 259ft 0kts
16-Apr-18 10:55 36.588232 -121.851834 15 259ft 0kts
16-Apr-18 10:56 36.588232 -121.851834 15 259ft 0kts
16-Apr-18 10:57 36.588232 -121.851834 15 259ft 0kts
16-Apr-18 10:58 36.588232 -121.851834 15 259ft 0kts
16-Apr-18 10:59 36.588232 -121.851834 15 259ft 0kts
16-Apr-18 11:00 36.588232 -121.851834 15 259ft 0kts
16-Apr-18 11:01 36.588263 -121.851822 13 259ft 0kts
16-Apr-18 11:02 36.588272 -121.851819 13 259ft 0kts
16-Apr-18 11:03 36.588272 -121.851819 13 259ft 0kts
16-Apr-18 11:04 36.587777 -121.849232 113 259ft 18kts
16-Apr-18 11:05 36.585175 -121.841838 112 259ft 24kts
16-Apr-18 11:06 36.583468 -121.836596 64 259ft 0kts
16-Apr-18 11:07 36.583468 -121.836596 64 259ft 0kts
16-Apr-18 11:08 36.584341 -121.836614 291 259ft 20kts
16-Apr-18 11:09 36.593502 -121.865362 288 1025ft 94kts
16-Apr-18 11:10 36.612738 -121.878334 346 2605ft 86kts
16-Apr-18 11:11 36.626128 -121.848429 78 3822ft 125kts
16-Apr-18 11:12 36.632534 -121.805618 78 5135ft 128kts
16-Apr-18 11:13 36.639214 -121.762346 77 6500ft 128kts
16-Apr-18 11:14 36.645721 -121.720243 77 7655ft 123kts
16-Apr-18 11:15 36.652124 -121.678995 77 8689ft 125kts
16-Apr-18 11:16 36.658825 -121.635814 77 9716ft 131kts
16-Apr-18 11:17 36.676089 -121.595981 22 10528ft 138kts
16-Apr-18 11:18 36.711648 -121.571928 21 11023ft 166kts
16-Apr-18 11:19 36.755158 -121.542965 21 11019ft 185kts
16-Apr-18 11:20 36.800460 -121.512885 21 11023ft 187kts
16-Apr-18 11:21 36.846418 -121.482392 21 11026ft 187kts
16-Apr-18 11:22 36.892437 -121.451826 21 11029ft 187kts
16-Apr-18 11:23 36.938277 -121.421342 21 11030ft 187kts
16-Apr-18 11:24 36.984188 -121.390781 22 11030ft 187kts
16-Apr-18 11:25 37.029950 -121.360275 22 11029ft 186kts
16-Apr-18 11:26 37.073897 -121.330931 23 11026ft 186kts
16-Apr-18 11:27 37.118323 -121.301223 24 11026ft 185kts
16-Apr-18 11:28 37.161758 -121.272110 24 11018ft 184kts
16-Apr-18 11:29 37.206610 -121.242037 25 11003ft 184kts
16-Apr-18 11:30 37.252525 -121.211236 25 10992ft 189kts
16-Apr-18 11:31 37.298801 -121.180102 25 10980ft 190kts
16-Apr-18 11:32 37.345604 -121.148594 25 10980ft 191kts
16-Apr-18 11:33 37.392500 -121.116976 26 10981ft 192kts
16-Apr-18 11:34 37.439476 -121.085259 26 10981ft 194kts
16-Apr-18 11:35 37.486972 -121.053145 26 10981ft 195kts
16-Apr-18 11:36 37.533746 -121.021474 26 10981ft 196kts
16-Apr-18 11:37 37.581536 -120.989082 27 10982ft 198kts
16-Apr-18 11:38 37.629785 -120.963067 341 10981ft 191kts
16-Apr-18 11:39 37.675864 -120.992923 324 10982ft 186kts
16-Apr-18 11:40 37.720792 -121.025082 324 10980ft 185kts
16-Apr-18 11:41 37.765652 -121.057400 325 10730ft 189kts
16-Apr-18 11:42 37.810867 -121.090037 326 9751ft 191kts
16-Apr-18 11:43 37.856545 -121.123041 327 8764ft 190kts
16-Apr-18 11:44 37.902275 -121.156132 328 7773ft 189kts
16-Apr-18 11:45 37.946739 -121.188363 328 6800ft 187kts
16-Apr-18 11:46 37.991574 -121.220901 329 5808ft 185kts
16-Apr-18 11:47 38.035032 -121.252476 330 5257ft 180kts
16-Apr-18 11:48 38.078424 -121.284042 330 4766ft 180kts
16-Apr-18 11:49 38.119676 -121.314088 330 4291ft 179kts
16-Apr-18 11:50 38.162252 -121.345153 329 3794ft 178kts
16-Apr-18 11:51 38.204763 -121.376214 329 3293ft 176kts
16-Apr-18 11:52 38.233970 -121.416597 283 2987ft 160kts
16-Apr-18 11:53 38.245156 -121.469539 283 2988ft 151kts
16-Apr-18 11:54 38.255953 -121.520949 283 2987ft 150kts
16-Apr-18 11:55 38.266461 -121.570853 283 2761ft 160kts
16-Apr-18 11:56 38.278510 -121.625144 301 1972ft 151kts
16-Apr-18 11:57 38.313917 -121.636678 3 1979ft 140kts
16-Apr-18 11:58 38.352019 -121.627090 31 1984ft 143kts
16-Apr-18 11:59 38.385552 -121.599648 33 1985ft 144kts
16-Apr-18 12:00 38.419315 -121.571830 34 1986ft 144kts
16-Apr-18 12:01 38.451484 -121.545230 33 1346ft 108kts
16-Apr-18 12:02 38.475204 -121.525528 33 788ft 101kts
16-Apr-18 12:03 38.496623 -121.507786 33 276ft 94kts
16-Apr-18 12:04 38.511305 -121.496615 280 27ft 10kts
16-Apr-18 12:05 38.512390 -121.496406 32 27ft 10kts
16-Apr-18 12:06 38.513140 -121.497116 204 27ft 0kts
16-Apr-18 12:07 38.513140 -121.497116 204 27ft 0kts
16-Apr-18 12:08 38.513140 -121.497116 204 27ft 0kts
16-Apr-18 12:09 38.513140 -121.497116 204 27ft 0kts

Navigation Log

Ident Type
Flight plan parsing failed, navigation log unavailable